Time;durP1;ratioP1;P1;durP2;ratioP2;P2;SDS_P1;SDS_P2;PMS_P1;PMS_P2;Temp;Humidity;BMP_temperature;BMP_pressure;BME280_temperature;BME280_humidity;BME280_pressure;Samples;Min_cycle;Max_cycle;Signal;HPM_P1;HPM_P2
2022/01/02 00:00:44;;;;;;;5.90;2.28;;;11.50;99.90;;;12.87;91.24;100751.63;5040242;28;20040;-79
2022/01/02 00:03:19;;;;;;;4.53;1.95;;;11.40;99.90;;;12.79;91.46;100749.84;5037180;28;20084;-76
2022/01/02 00:05:46;;;;;;;5.38;2.00;;;11.30;99.90;;;12.68;91.88;100748.84;5039622;28;20029;-79
2022/01/02 00:08:12;;;;;;;4.57;2.05;;;11.20;99.90;;;12.59;92.44;100723.84;5039477;28;20098;-77
2022/01/02 00:10:58;;;;;;;5.18;2.22;;;11.20;99.90;;;12.65;91.68;100727.13;5039651;28;20029;-78
2022/01/02 00:13:34;;;;;;;4.38;2.63;;;11.20;99.90;;;12.66;91.53;100731.56;5040248;28;20040;-77
2022/01/02 00:16:06;;;;;;;2.63;2.00;;;11.20;99.90;;;12.69;91.25;100742.03;5038692;28;20026;-77
2022/01/02 00:18:36;;;;;;;4.95;2.30;;;11.20;99.90;;;12.76;90.95;100736.59;5041579;28;20029;-78
2022/01/02 00:21:10;;;;;;;3.42;2.22;;;11.30;99.90;;;12.82;90.02;100723.88;5043467;28;20033;-76
2022/01/02 00:23:49;;;;;;;3.78;2.28;;;11.40;99.90;;;12.92;88.99;100723.28;5041554;28;20033;-79
2022/01/02 00:26:19;;;;;;;4.18;2.13;;;11.60;99.90;;;13.12;88.04;100722.09;5030551;28;20033;-77
2022/01/02 00:28:51;;;;;;;2.88;2.15;;;11.70;99.90;;;13.17;87.92;100706.91;5021297;28;20026;-78
2022/01/02 00:31:17;;;;;;;7.60;2.70;;;11.70;99.90;;;13.10;87.87;100706.78;5021087;28;20053;-77
2022/01/02 00:33:43;;;;;;;4.13;2.20;;;11.90;99.90;;;13.22;87.04;100712.25;5020132;28;20025;-78
2022/01/02 00:36:12;;;;;;;4.10;2.10;;;12.00;99.90;;;13.22;87.48;100698.22;5018112;28;20033;-79
2022/01/02 00:38:39;;;;;;;3.17;1.90;;;12.00;99.90;;;13.22;87.05;100714.22;5017245;28;20034;-79
2022/01/02 00:41:06;;;;;;;6.43;2.45;;;12.10;99.90;;;13.27;87.02;100716.72;5017884;28;20057;-77
2022/01/02 00:43:54;;;;;;;3.88;2.20;;;12.10;99.90;;;13.33;86.42;100720.81;5019737;28;20041;-77
2022/01/02 00:46:21;;;;;;;3.28;2.10;;;12.10;99.90;;;13.31;86.54;100711.97;5023156;28;20030;-78
2022/01/02 00:48:57;;;;;;;4.13;2.28;;;12.10;99.90;;;13.32;86.38;100722.03;5021555;28;20445;-78
2022/01/02 00:51:46;;;;;;;;;;;12.10;99.90;;;13.38;86.07;100718.53;5023861;28;20022;-76
2022/01/02 00:54:17;;;;;;;4.45;2.35;;;12.10;99.90;;;13.29;86.12;100725.56;5025030;28;19929;-77
2022/01/02 00:56:49;;;;;;;4.65;2.35;;;12.20;99.90;;;13.47;86.11;100716.25;5021931;28;20022;-77
2022/01/02 01:00:07;;;;;;;3.92;2.03;;;12.30;99.90;;;13.48;86.09;100728.31;5021248;28;20049;-75
2022/01/02 01:02:48;;;;;;;6.13;2.50;;;12.20;99.90;;;13.45;86.28;100729.06;5020018;28;20080;-77
2022/01/02 01:05:41;;;;;;;4.20;2.60;;;12.20;99.90;;;13.47;86.32;100715.44;5022273;28;20034;-76
2022/01/02 01:08:09;;;;;;;5.43;2.45;;;12.20;99.90;;;13.41;86.48;100717.78;5018539;28;20045;-77
2022/01/02 01:10:41;;;;;;;4.95;2.40;;;12.20;99.90;;;13.43;86.34;100720.19;5021188;28;20043;-77
2022/01/02 01:13:14;;;;;;;3.95;2.20;;;12.20;99.90;;;13.46;86.75;100719.44;5020557;28;20026;-76
2022/01/02 01:15:43;;;;;;;4.68;2.38;;;12.20;99.90;;;13.47;86.66;100723.88;5020261;28;20109;-77
2022/01/02 01:18:12;;;;;;;4.22;2.33;;;12.20;99.90;;;13.46;86.28;100733.47;5021475;28;20060;-78
2022/01/02 01:20:44;;;;;;;3.17;2.38;;;12.20;99.90;;;13.49;86.17;100733.53;5020859;28;20115;-79
2022/01/02 01:23:16;;;;;;;4.95;2.40;;;12.20;99.90;;;13.40;86.74;100738.59;5016586;28;20533;-77
2022/01/02 01:25:48;;;;;;;3.22;2.30;;;12.20;99.90;;;13.42;86.63;100741.81;5029642;28;20380;-78
2022/01/02 01:28:17;;;;;;;4.32;2.30;;;12.20;99.90;;;13.52;86.42;100740.38;5038232;28;20378;-76
2022/01/02 01:30:44;;;;;;;4.28;2.65;;;12.20;99.90;;;13.47;86.31;100735.91;5037642;28;20034;-78
2022/01/02 01:33:12;;;;;;;6.30;2.85;;;12.20;99.90;;;13.59;85.63;100727.28;5039582;28;20472;-77
2022/01/02 01:35:40;;;;;;;4.07;2.22;;;12.30;99.90;;;13.41;86.64;100739.41;5039709;28;20059;-78
2022/01/02 01:38:05;;;;;;;3.85;2.00;;;12.30;99.90;;;13.35;86.89;100729.69;5043845;28;20053;-77
2022/01/02 01:40:49;;;;;;;4.97;2.40;;;12.30;99.90;;;13.47;86.32;100732.28;5043270;28;20036;-78
2022/01/02 01:43:16;;;;;;;6.50;2.25;;;12.40;99.90;;;13.46;86.44;100728.66;5041012;28;20094;-77
2022/01/02 01:45:42;;;;;;;9.07;3.08;;;12.30;99.90;;;13.44;85.88;100744.25;5043251;28;20041;-77
2022/01/02 01:48:11;;;;;;;6.32;2.30;;;12.40;99.90;;;13.56;85.65;100747.69;5042758;28;20048;-78
2022/01/02 01:50:43;;;;;;;5.50;2.70;;;12.40;99.90;;;13.59;85.52;100748.91;5040828;28;20028;-77
2022/01/02 01:53:12;;;;;;;8.32;2.70;;;12.50;99.90;;;13.63;85.20;100741.38;5036746;28;20021;-78
2022/01/02 01:55:39;;;;;;;4.15;2.10;;;12.40;99.90;;;13.72;84.58;100744.72;5038697;28;20021;-78
2022/01/02 01:58:07;;;;;;;6.50;2.47;;;12.50;99.90;;;13.66;84.71;100738.63;5043778;28;20013;-78
2022/01/02 02:00:35;;;;;;;4.80;2.53;;;12.50;99.90;;;13.74;84.22;100748.75;5055686;28;20017;-77
2022/01/02 02:03:03;;;;;;;4.47;3.03;;;12.60;99.90;;;13.67;84.57;100747.88;5076258;22;20430;-76
2022/01/02 02:05:29;;;;;;;6.63;2.35;;;12.60;99.90;;;13.75;84.57;100749.56;5070774;28;20079;-77
2022/01/02 02:07:54;;;;;;;5.47;2.08;;;12.60;99.90;;;13.78;84.81;100740.41;5071345;28;20476;-78
2022/01/02 02:10:34;;;;;;;7.25;2.22;;;12.50;99.90;;;13.77;84.91;100729.56;5057030;28;20082;-78
2022/01/02 02:13:04;;;;;;;4.53;2.90;;;12.40;99.90;;;13.65;85.36;100725.78;5057763;28;20537;-77
2022/01/02 02:15:30;;;;;;;4.65;2.42;;;12.40;99.90;;;13.59;85.62;100720.84;5058072;28;20029;-76
2022/01/02 02:17:56;;;;;;;4.63;2.60;;;12.40;99.90;;;13.65;85.67;100722.16;5058040;28;20039;-77
2022/01/02 02:20:33;;;;;;;5.72;2.45;;;12.40;99.90;;;13.62;86.08;100715.31;5057482;28;20033;-77
2022/01/02 02:23:05;;;;;;;5.35;2.58;;;12.40;99.90;;;13.59;86.55;100716.06;5056988;28;20033;-77
2022/01/02 02:25:38;;;;;;;4.88;2.50;;;12.30;99.90;;;13.49;87.53;100730.72;5068105;28;20083;-78
2022/01/02 02:28:15;;;;;;;6.13;2.53;;;12.30;99.90;;;13.52;87.38;100720.72;5076750;28;20092;-77
2022/01/02 02:30:47;;;;;;;5.13;2.28;;;12.30;99.90;;;13.43;87.30;100704.16;5077750;28;20173;-78
2022/01/02 02:33:21;;;;;;;4.97;2.53;;;12.20;99.90;;;13.39;87.75;100696.91;5077190;28;20028;-76
2022/01/02 02:35:49;;;;;;;3.28;2.05;;;12.20;99.90;;;13.42;87.91;100701.75;5076159;28;20024;-78
2022/01/02 02:38:22;;;;;;;5.38;2.35;;;12.20;99.90;;;13.44;87.86;100705.78;5074891;28;20430;-78
2022/01/02 02:40:48;;;;;;;5.97;2.40;;;12.20;99.90;;;13.48;87.78;100697.44;5075270;28;20043;-79
2022/01/02 02:54:31;;;;;;;5.85;2.60;;;12.20;99.90;;;13.43;87.84;100708.97;5076865;28;20035;-78
2022/01/02 02:56:59;;;;;;;7.68;2.33;;;12.30;99.90;;;13.36;88.22;100697.63;5077021;28;20378;-78
2022/01/02 02:59:37;;;;;;;5.10;2.20;;;12.20;99.90;;;13.49;87.66;100693.44;5076725;28;20048;-75
2022/01/02 03:02:03;;;;;;;7.72;2.60;;;12.30;99.90;;;13.57;87.41;100686.75;5077292;28;20033;-76
2022/01/02 03:04:30;;;;;;;6.93;2.28;;;12.30;99.90;;;13.60;87.18;100677.56;5077910;28;20110;-77
2022/01/02 03:06:56;;;;;;;4.47;1.80;;;12.30;99.90;;;13.52;87.42;100671.03;5076111;28;20036;-77
2022/01/02 03:09:48;;;;;;;13.35;2.80;;;12.30;99.90;;;13.52;87.28;100673.84;5082184;28;20029;-76
2022/01/02 03:12:11;;;;;;;;;;;12.20;99.90;;;13.59;87.34;100659.94;5086757;28;20056;-77
2022/01/02 03:14:38;;;;;;;4.82;2.15;;;12.30;99.90;;;13.69;86.92;100645.25;5100575;28;19908;-78
2022/01/02 03:17:05;;;;;;;6.82;2.28;;;12.30;99.90;;;13.64;87.11;100630.75;5084526;28;20035;-77
2022/01/02 03:19:34;;;;;;;4.28;2.40;;;12.30;99.90;;;13.66;87.01;100633.97;5078615;28;20123;-78
2022/01/02 03:22:00;;;;;;;7.60;2.55;;;12.30;99.90;;;13.59;87.45;100639.47;5075957;28;20056;-77
2022/01/02 03:24:26;;;;;;;6.30;2.03;;;12.20;99.90;;;13.56;88.48;100655.06;5071763;28;20293;-77
2022/01/02 03:26:55;;;;;;;7.10;2.90;;;12.30;99.90;;;13.50;88.54;100655.78;5073332;28;20494;-77
2022/01/02 03:29:22;;;;;;;7.40;2.03;;;12.30;99.90;;;13.52;88.69;100644.97;5073251;28;20097;-76
2022/01/02 03:31:51;;;;;;;7.70;2.03;;;12.30;99.90;;;13.51;89.14;100630.16;5073892;28;20021;-76
2022/01/02 03:34:17;;;;;;;7.25;2.40;;;12.20;99.90;;;13.50;89.17;100639.75;5073505;28;20028;-78
2022/01/02 03:36:45;;;;;;;7.28;2.70;;;12.20;99.90;;;13.46;89.82;100638.88;5076307;28;20028;-78
2022/01/02 03:39:20;;;;;;;6.75;2.60;;;12.20;99.90;;;13.48;90.29;100632.91;5072463;28;20391;-75
2022/01/02 03:41:46;;;;;;;7.17;2.20;;;12.10;99.90;;;13.49;90.54;100642.91;5074387;28;20059;-76
2022/01/02 03:44:15;;;;;;;6.95;2.20;;;12.10;99.90;;;13.51;90.65;100632.16;5074132;28;20271;-77
2022/01/02 03:46:44;;;;;;;12.43;2.70;;;12.20;99.90;;;13.51;91.45;100624.53;5074663;28;20029;-76
2022/01/02 03:49:11;;;;;;;8.65;2.50;;;12.20;99.90;;;13.46;92.15;100616.44;5074647;28;20132;-78
2022/01/02 03:51:37;;;;;;;6.20;2.15;;;12.20;99.90;;;13.47;92.44;100620.06;5073492;28;20131;-77
2022/01/02 03:54:02;;;;;;;6.50;2.95;;;12.20;99.90;;;13.52;92.48;100625.31;5074723;28;20483;-77
2022/01/02 03:56:31;;;;;;;7.38;2.50;;;12.20;99.90;;;13.54;92.87;100626.59;5074139;28;20056;-77
2022/01/02 03:58:57;;;;;;;8.02;2.38;;;12.20;99.90;;;13.39;94.13;100621.94;5074961;28;20527;-77
2022/01/02 04:01:23;;;;;;;5.80;2.42;;;12.20;99.90;;;13.35;95.29;100626.72;5073476;28;20028;-78
2022/01/02 04:03:49;;;;;;;8.18;3.03;;;12.10;99.90;;;13.20;96.74;100619.22;5073848;28;20242;-75
2022/01/02 04:06:14;;;;;;;6.90;2.72;;;12.10;99.90;;;13.19;97.61;100620.44;5072936;28;20044;-77
2022/01/02 04:08:40;;;;;;;11.02;3.20;;;12.00;99.90;;;13.16;97.65;100605.16;5073454;28;20494;-76
2022/01/02 04:11:06;;;;;;;8.00;2.80;;;12.00;99.90;;;13.10;98.07;100597.44;5071210;28;20510;-76
2022/01/02 04:13:35;;;;;;;6.22;2.70;;;11.90;99.90;;;13.09;98.68;100582.63;5074558;28;20028;-79
2022/01/02 04:16:01;;;;;;;9.35;2.70;;;11.90;99.90;;;13.12;99.12;100581.88;5074778;28;20024;-76
2022/01/02 04:18:27;;;;;;;8.20;3.22;;;11.80;99.90;;;13.05;100.00;100576.13;5075324;28;20078;-78
2022/01/02 04:20:55;;;;;;;10.93;2.63;;;11.80;99.90;;;13.01;100.00;100566.03;5075573;28;20506;-79
2022/01/02 04:23:24;;;;;;;9.50;2.50;;;11.70;99.90;;;12.96;100.00;100564.38;5078925;28;20077;-78
2022/01/02 04:25:50;;;;;;;7.35;3.05;;;11.70;99.90;;;12.84;100.00;100558.16;5078985;28;20031;-79
2022/01/02 04:28:16;;;;;;;5.32;2.60;;;11.70;99.90;;;12.82;100.00;100564.13;5079996;28;20025;-78
2022/01/02 04:30:42;;;;;;;10.15;2.40;;;11.60;99.90;;;12.80;100.00;100554.47;5079085;28;20035;-77
2022/01/02 04:33:08;;;;;;;7.18;2.97;;;11.60;99.90;;;12.73;100.00;100576.78;5078123;28;20130;-77
2022/01/02 04:35:33;;;;;;;9.68;2.75;;;11.60;99.90;;;12.79;100.00;100564.88;5078324;28;20039;-78
2022/01/02 04:37:59;;;;;;;4.75;2.75;;;11.60;99.90;;;12.89;100.00;100560.63;5078709;28;20052;-78
2022/01/02 04:40:25;;;;;;;9.18;3.00;;;11.60;99.90;;;12.76;100.00;100554.41;5078731;28;20029;-78
2022/01/02 04:42:51;;;;;;;5.90;3.33;;;11.60;99.90;;;12.74;100.00;100554.00;5077474;28;20479;-79
2022/01/02 04:45:20;;;;;;;6.78;2.80;;;11.70;99.90;;;12.89;100.00;100552.22;5077916;28;20480;-78
2022/01/02 04:47:45;;;;;;;10.02;2.80;;;11.70;99.90;;;12.78;100.00;100549.22;5077004;28;20465;-78
2022/01/02 04:50:11;;;;;;;7.93;2.67;;;11.70;99.90;;;12.89;100.00;100569.03;5077360;28;20056;-78
2022/01/02 04:52:43;;;;;;;5.28;2.90;;;11.70;99.90;;;12.88;100.00;100571.03;5077434;28;20040;-78
2022/01/02 04:55:09;;;;;;;9.48;2.95;;;11.70;99.90;;;12.95;100.00;100570.34;5077272;28;20041;-78
2022/01/02 04:57:35;;;;;;;9.20;2.58;;;11.70;99.90;;;12.86;100.00;100569.78;5077741;28;20166;-78
2022/01/02 05:00:07;;;;;;;8.73;3.20;;;11.80;99.90;;;12.79;100.00;100572.47;5076066;28;20025;-78
2022/01/02 05:02:33;;;;;;;12.98;3.40;;;11.70;99.90;;;12.83;100.00;100564.94;5076502;28;20218;-78
2022/01/02 05:04:59;;;;;;;5.93;2.80;;;11.70;99.90;;;12.84;100.00;100561.78;5076794;28;20163;-79
2022/01/02 05:07:25;;;;;;;7.45;3.30;;;11.70;99.90;;;12.82;100.00;100550.09;5077146;28;20032;-79
2022/01/02 05:09:51;;;;;;;11.52;3.85;;;11.70;99.90;;;12.87;100.00;100551.78;5077659;28;20024;-79
2022/01/02 05:12:17;;;;;;;5.38;3.05;;;11.60;99.90;;;12.83;100.00;100537.72;5076479;28;20035;-79
2022/01/02 05:14:43;;;;;;;11.55;3.38;;;11.60;99.90;;;12.72;100.00;100541.50;5075225;28;20036;-79
2022/01/02 05:17:09;;;;;;;8.43;3.45;;;11.60;99.90;;;12.64;100.00;100544.22;5074689;28;20033;-77
2022/01/02 05:19:36;;;;;;;10.80;3.25;;;11.60;99.90;;;12.68;100.00;100542.25;5076175;28;20021;-78
2022/01/02 05:22:07;;;;;;;9.10;3.22;;;11.70;99.90;;;12.77;100.00;100552.44;5087696;28;20013;-77
2022/01/02 05:24:33;;;;;;;9.45;3.35;;;11.70;99.90;;;12.85;100.00;100545.75;5095811;28;20063;-78
2022/01/02 05:26:59;;;;;;;7.05;3.30;;;11.70;99.90;;;12.84;100.00;100546.94;5078699;28;20455;-79
2022/01/02 05:29:25;;;;;;;9.80;3.33;;;11.70;99.90;;;12.81;100.00;100545.69;5078144;28;20112;-78
2022/01/02 05:31:51;;;;;;;8.77;2.70;;;11.70;99.90;;;12.85;100.00;100535.34;5074847;28;20099;-79
2022/01/02 05:34:17;;;;;;;13.20;2.80;;;11.80;99.90;;;12.85;100.00;100521.31;5076459;28;20398;-79
2022/01/02 05:36:48;;;;;;;8.23;3.47;;;11.70;99.90;;;12.93;100.00;100511.03;5073758;28;20483;-78
2022/01/02 05:39:19;;;;;;;7.68;2.70;;;11.80;99.90;;;12.95;100.00;100505.84;5076039;28;20024;-78
2022/01/02 05:41:47;;;;;;;9.73;2.75;;;11.70;99.90;;;12.94;100.00;100502.25;5075554;28;20024;-78
2022/01/02 05:44:14;;;;;;;7.70;2.97;;;11.80;99.90;;;12.94;100.00;100502.25;5076632;28;20025;-78
2022/01/02 05:46:42;;;;;;;10.57;3.17;;;11.80;99.90;;;13.01;100.00;100495.94;5073979;28;20119;-77
2022/01/02 05:49:10;;;;;;;8.65;2.25;;;11.80;99.90;;;13.02;100.00;100497.56;5074196;28;20032;-78
2022/01/02 05:51:44;;;;;;;9.93;3.15;;;11.90;99.90;;;13.03;100.00;100483.19;5073964;28;20058;-78
2022/01/02 05:54:13;;;;;;;11.48;3.05;;;11.90;99.90;;;12.94;100.00;100471.41;5074860;28;20029;-77
2022/01/02 05:56:39;;;;;;;10.70;3.42;;;11.80;99.90;;;13.02;100.00;100487.16;5074810;28;20137;-78
2022/01/02 05:59:05;;;;;;;6.25;3.03;;;11.80;99.90;;;12.98;100.00;100485.47;5074712;28;20182;-78
2022/01/02 06:01:31;;;;;;;9.00;3.15;;;11.80;99.90;;;13.07;100.00;100480.41;5074243;28;20071;-79
2022/01/02 06:03:57;;;;;;;12.55;3.15;;;11.80;99.90;;;13.02;100.00;100481.56;5072909;28;20032;-79
2022/01/02 06:06:23;;;;;;;10.82;3.30;;;11.80;99.90;;;13.03;100.00;100473.94;5074398;28;20025;-79
2022/01/02 06:08:49;;;;;;;10.15;3.60;;;11.80;99.90;;;12.95;100.00;100475.84;5073688;28;20123;-79
2022/01/02 06:11:15;;;;;;;9.88;2.78;;;11.80;99.90;;;13.06;100.00;100468.41;5073959;28;20031;-79
2022/01/02 06:13:42;;;;;;;8.73;3.30;;;11.80;99.90;;;12.90;100.00;100466.94;5074477;28;20024;-78
2022/01/02 06:16:12;;;;;;;13.30;4.03;;;11.70;99.90;;;12.92;100.00;100456.97;5074551;28;20016;-78
2022/01/02 06:18:44;;;;;;;15.52;3.85;;;11.70;99.90;;;12.96;100.00;100455.03;5073495;28;20032;-79
2022/01/02 06:21:13;;;;;;;8.93;3.30;;;11.70;99.90;;;12.92;100.00;100456.16;5074500;28;20028;-80
2022/01/02 06:23:42;;;;;;;7.05;2.55;;;11.60;99.90;;;12.85;100.00;100459.66;5074501;28;20032;-77
2022/01/02 06:26:11;;;;;;;8.23;3.30;;;11.60;99.90;;;12.87;100.00;100467.72;5074976;28;20386;-78
2022/01/02 06:28:37;;;;;;;10.38;3.72;;;11.60;99.90;;;12.76;100.00;100467.53;5073389;28;20082;-77
2022/01/02 06:31:02;;;;;;;12.27;3.47;;;11.50;99.90;;;12.73;100.00;100462.69;5072991;28;20485;-78
2022/01/02 06:33:28;;;;;;;12.52;3.28;;;11.50;99.90;;;12.58;100.00;100441.25;5073150;28;20028;-78
2022/01/02 06:35:57;;;;;;;11.00;3.55;;;11.50;99.90;;;12.51;100.00;100439.16;5073625;28;20052;-78
2022/01/02 06:38:23;;;;;;;13.25;3.83;;;11.40;99.90;;;12.55;100.00;100428.00;5072891;28;20118;-79
2022/01/02 06:40:49;;;;;;;9.13;3.85;;;11.40;99.90;;;12.51;100.00;100418.72;5072346;28;20549;-78
2022/01/02 06:43:16;;;;;;;9.10;4.15;;;11.40;99.90;;;12.54;100.00;100409.56;5074481;28;20036;-78
2022/01/02 06:45:48;;;;;;;13.00;3.60;;;11.40;99.90;;;12.48;100.00;100391.47;5074271;28;20440;-78
2022/01/02 06:48:14;;;;;;;13.70;4.05;;;11.40;99.90;;;12.52;100.00;100379.09;5074777;28;20131;-78
2022/01/02 06:50:40;;;;;;;11.73;3.80;;;11.30;99.90;;;12.42;100.00;100379.78;5072475;28;20456;-79
2022/01/02 06:53:07;;;;;;;10.80;3.60;;;11.30;99.90;;;12.51;100.00;100383.13;5073689;28;20024;-79
2022/01/02 06:55:34;;;;;;;6.90;3.53;;;11.30;99.90;;;12.38;100.00;100380.91;5074213;28;20073;-78
2022/01/02 06:58:00;;;;;;;8.57;3.35;;;11.30;99.90;;;12.40;100.00;100376.53;5074355;28;20020;-78
2022/01/02 07:00:26;;;;;;;9.50;3.63;;;11.30;99.90;;;12.41;100.00;100372.56;5077917;28;20495;-78
2022/01/02 07:02:54;;;;;;;9.15;3.40;;;11.30;99.90;;;12.42;100.00;100368.59;5074840;28;20420;-78
2022/01/02 07:05:23;;;;;;;12.95;3.25;;;11.30;99.90;;;12.42;100.00;100376.16;5073473;28;20028;-78
2022/01/02 07:07:52;;;;;;;13.68;3.40;;;11.30;99.90;;;12.43;100.00;100381.38;5074254;28;20154;-78
2022/01/02 07:10:21;;;;;;;13.50;3.75;;;11.30;99.90;;;12.41;100.00;100371.75;5073740;28;20025;-77
2022/01/02 07:12:47;;;;;;;8.38;3.72;;;11.40;99.90;;;12.46;100.00;100363.00;5074143;28;20032;-78
2022/01/02 07:15:13;;;;;;;8.93;3.45;;;11.40;99.90;;;12.44;100.00;100356.97;5072403;28;20436;-78
2022/01/02 07:17:39;;;;;;;12.02;3.63;;;11.40;99.90;;;12.47;100.00;100350.63;5073792;28;20033;-78
2022/01/02 07:20:09;;;;;;;10.45;3.63;;;11.40;99.90;;;12.43;100.00;100341.34;5073717;28;20383;-78
2022/01/02 07:22:36;;;;;;;10.65;2.95;;;11.40;99.90;;;12.42;100.00;100334.97;5073325;28;20369;-78
2022/01/02 07:25:04;;;;;;;11.60;4.13;;;11.50;99.90;;;12.46;100.00;100326.59;5073699;28;20025;-78
2022/01/02 07:27:33;;;;;;;15.25;3.78;;;11.50;99.90;;;12.49;100.00;100309.84;5072003;28;20028;-78
2022/01/02 07:29:59;;;;;;;13.55;3.40;;;11.60;99.90;;;12.54;100.00;100289.09;5072772;28;20086;-77
2022/01/02 07:32:26;;;;;;;9.77;3.90;;;11.60;99.90;;;12.58;100.00;100287.16;5072143;28;20020;-77
2022/01/02 07:34:52;;;;;;;10.55;3.50;;;11.60;99.90;;;12.60;100.00;100274.38;5073658;28;20365;-77
2022/01/02 07:37:18;;;;;;;9.45;3.70;;;11.60;99.90;;;12.60;100.00;100279.19;5072406;28;20488;-77
2022/01/02 07:39:44;;;;;;;9.63;3.45;;;11.50;99.90;;;12.62;100.00;100294.41;5071563;28;20035;-78
2022/01/02 07:42:10;;;;;;;13.18;3.67;;;11.50;99.90;;;12.44;100.00;100292.56;5071664;28;20119;-78
2022/01/02 07:44:42;;;;;;;12.73;3.53;;;11.50;99.90;;;12.45;100.00;100297.81;5072319;28;20558;-78
2022/01/02 07:47:08;;;;;;;13.20;3.60;;;11.50;99.90;;;12.59;100.00;100299.97;5072872;28;20025;-76
2022/01/02 07:49:35;;;;;;;14.27;4.03;;;11.50;99.90;;;12.54;100.00;100308.72;5072833;28;20131;-78
2022/01/02 07:52:04;;;;;;;9.27;3.78;;;11.50;99.90;;;12.57;100.00;100305.16;5073065;28;20021;-76
2022/01/02 07:54:30;;;;;;;10.00;3.65;;;11.50;99.90;;;12.44;100.00;100289.75;5072023;28;20060;-77
2022/01/02 07:56:56;;;;;;;12.23;3.95;;;11.50;99.90;;;12.43;100.00;100297.34;5076268;28;20077;-77
2022/01/02 07:59:21;;;;;;;7.22;3.17;;;11.50;99.90;;;12.59;100.00;100297.97;5076936;28;20467;-78
2022/01/02 08:01:47;;;;;;;12.23;3.45;;;11.50;99.90;;;12.54;100.00;100292.72;5082975;22;20279;-88
2022/01/02 08:04:13;;;;;;;8.82;3.30;;;11.50;99.90;;;12.53;100.00;100285.50;5055235;28;20045;-86
2022/01/02 08:06:39;;;;;;;10.48;3.88;;;11.50;99.90;;;12.53;100.00;100282.69;5053595;28;20033;-87
2022/01/02 08:09:05;;;;;;;7.50;3.10;;;11.50;99.90;;;12.61;100.00;100283.59;5036563;28;20048;-87
2022/01/02 08:11:31;;;;;;;9.13;3.60;;;11.50;99.90;;;12.46;100.00;100248.97;5031971;28;20105;-86
2022/01/02 08:13:57;;;;;;;12.32;3.70;;;11.50;99.90;;;12.61;100.00;100236.78;5046205;28;20068;-85
2022/01/02 08:16:22;;;;;;;9.40;3.33;;;11.50;99.90;;;12.64;100.00;100230.41;5063520;22;20086;-78
2022/01/02 08:18:48;;;;;;;6.75;3.45;;;11.50;99.90;;;12.58;100.00;100191.91;5076751;28;20487;-78
2022/01/02 08:21:14;;;;;;;9.13;3.17;;;11.50;99.90;;;12.49;100.00;100183.78;5075875;28;20558;-77
2022/01/02 08:23:40;;;;;;;11.88;3.05;;;11.50;99.90;;;12.55;100.00;100182.25;5075672;28;20139;-76
2022/01/02 08:26:06;;;;;;;9.70;3.15;;;11.50;99.90;;;12.55;100.00;100153.47;5073824;28;20033;-78
2022/01/02 08:28:34;;;;;;;8.40;3.47;;;11.50;99.90;;;12.55;100.00;100143.03;5074966;28;20108;-76
2022/01/02 08:31:03;;;;;;;13.63;3.67;;;11.50;99.90;;;12.50;100.00;100154.59;5074926;28;20025;-76
2022/01/02 08:33:29;;;;;;;8.18;2.92;;;11.50;99.90;;;12.62;100.00;100165.53;5073354;28;20020;-75
2022/01/02 08:35:58;;;;;;;7.30;3.55;;;11.50;99.90;;;12.63;100.00;100155.13;5073339;28;20042;-77
2022/01/02 08:38:28;;;;;;;12.80;3.80;;;11.60;99.90;;;12.56;100.00;100143.84;5075092;28;20028;-76
2022/01/02 08:40:54;;;;;;;8.40;3.15;;;11.60;99.90;;;12.65;100.00;100138.72;5075129;28;20198;-76
2022/01/02 08:43:20;;;;;;;9.02;3.40;;;11.60;99.90;;;12.65;100.00;100135.94;5073854;28;20124;-76
2022/01/02 08:45:46;;;;;;;10.85;3.28;;;11.60;99.90;;;12.66;100.00;100137.56;5075806;28;20039;-78
2022/01/02 08:48:15;;;;;;;10.98;3.25;;;11.60;99.90;;;12.69;100.00;100143.19;5074481;28;20024;-78
2022/01/02 08:50:41;;;;;;;9.75;3.55;;;11.70;99.90;;;12.72;100.00;100164.03;5075677;28;20037;-78
2022/01/02 08:53:12;;;;;;;6.78;3.22;;;11.70;99.90;;;12.68;100.00;100186.41;5085163;28;20037;-77
2022/01/02 08:55:38;;;;;;;7.45;3.28;;;11.70;99.90;;;12.54;100.00;100174.25;5091251;28;20056;-77
2022/01/02 08:58:04;;;;;;;12.88;3.00;;;11.70;99.90;;;12.57;100.00;100148.28;5083513;28;20028;-78
2022/01/02 09:00:32;;;;;;;10.75;3.58;;;11.80;99.90;;;12.71;100.00;100114.00;5078547;28;20410;-78
2022/01/02 09:02:58;;;;;;;10.18;3.28;;;11.70;99.90;;;12.64;100.00;100100.72;5082101;28;20033;-76
2022/01/02 09:05:26;;;;;;;10.32;3.45;;;11.70;99.90;;;12.78;100.00;100108.47;5085106;28;20058;-78
2022/01/02 09:07:55;;;;;;;11.85;3.25;;;11.80;99.90;;;12.78;100.00;100114.06;5072427;28;20028;-77
2022/01/02 09:10:25;;;;;;;6.28;3.17;;;11.90;99.90;;;12.79;100.00;100127.69;5074986;28;20037;-77
2022/01/02 09:12:50;;;;;;;13.30;3.22;;;11.80;99.90;;;12.74;100.00;100119.66;5075231;28;20029;-78
2022/01/02 09:15:17;;;;;;;9.77;2.83;;;11.80;99.90;;;12.82;100.00;100129.72;5076770;28;20369;-77
2022/01/02 09:17:43;;;;;;;8.27;3.22;;;11.80;99.90;;;12.91;100.00;100133.00;5079096;28;20029;-76
2022/01/02 09:20:13;;;;;;;9.13;2.50;;;11.80;99.90;;;12.82;100.00;100124.09;5079812;28;20427;-77
2022/01/02 09:22:39;;;;;;;6.20;2.55;;;11.80;99.90;;;12.78;98.54;100156.13;5080280;28;20017;-77
2022/01/02 09:25:09;;;;;;;8.15;3.05;;;11.90;99.90;;;12.99;95.92;100157.13;5069631;28;20025;-76
2022/01/02 09:27:36;;;;;;;8.25;2.35;;;12.00;99.90;;;12.95;92.51;100150.66;5052811;28;20468;-77
2022/01/02 09:30:08;;;;;;;6.80;2.60;;;12.10;99.90;;;13.05;92.70;100144.34;5056172;28;20043;-78
2022/01/02 09:32:34;;;;;;;4.40;2.10;;;12.10;99.90;;;13.07;92.70;100152.38;5070239;28;20472;-78
2022/01/02 09:35:08;;;;;;;4.75;2.40;;;12.10;99.90;;;13.13;90.34;100148.06;5054813;28;20029;-78
2022/01/02 09:37:35;;;;;;;3.78;1.95;;;12.20;99.90;;;13.14;91.50;100146.84;5054097;28;20036;-77
2022/01/02 09:40:06;;;;;;;5.28;2.08;;;12.20;99.90;;;13.20;88.96;100140.50;5055158;28;20033;-76
2022/01/02 09:42:36;;;;;;;3.90;2.00;;;12.20;99.90;;;13.42;88.12;100126.66;5053589;28;20108;-75
2022/01/02 09:45:04;;;;;;;5.03;1.88;;;12.30;99.90;;;13.58;86.86;100133.56;5054173;28;20033;-78
2022/01/02 09:47:32;;;;;;;3.50;1.70;;;12.50;99.90;;;13.67;85.26;100122.00;5054598;28;20024;-78
2022/01/02 09:50:09;;;;;;;5.07;1.75;;;12.70;99.90;;;13.77;84.18;100115.66;5055091;28;20324;-75
2022/01/02 09:52:35;;;;;;;4.72;1.98;;;12.70;99.90;;;13.75;85.30;100126.47;5054551;28;20025;-76
2022/01/02 09:55:02;;;;;;;3.08;1.85;;;12.80;99.90;;;13.73;84.67;100115.66;5055026;28;20434;-76
2022/01/02 09:57:28;;;;;;;2.80;1.80;;;12.70;99.90;;;13.70;84.88;100113.63;5055186;28;20415;-77
2022/01/02 09:59:56;;;;;;;3.72;1.67;;;12.70;99.90;;;13.78;85.35;100120.06;5053822;28;20029;-77
2022/01/02 10:02:23;;;;;;;4.20;2.05;;;12.70;99.90;;;13.65;85.72;100135.63;5055050;28;20025;-77
2022/01/02 10:04:48;;;;;;;6.10;2.20;;;12.60;99.90;;;13.56;85.62;100140.78;5055061;28;20074;-77
2022/01/02 10:07:35;;;;;;;3.75;1.77;;;12.60;99.90;;;13.54;85.60;100149.59;5053830;28;20032;-78
2022/01/02 10:10:12;;;;;;;5.88;2.30;;;12.60;99.90;;;13.49;86.17;100137.91;5054802;28;20025;-78
2022/01/02 10:12:39;;;;;;;6.75;1.92;;;12.60;99.90;;;13.42;87.35;100146.31;5053919;28;20071;-78
2022/01/02 10:15:25;;;;;;;6.20;2.47;;;12.60;99.90;;;13.46;87.34;100103.03;5054004;28;20027;-77
2022/01/02 10:18:10;;;;;;;4.50;2.17;;;12.50;99.90;;;13.45;87.32;100109.03;5054410;28;20037;-78
2022/01/02 10:20:48;;;;;;;3.85;2.05;;;12.50;99.90;;;13.39;88.37;100133.06;5054884;28;20047;-79
2022/01/02 10:23:18;;;;;;;4.65;2.47;;;12.50;99.90;;;13.39;88.97;100131.03;5053002;28;20511;-76
2022/01/02 10:26:03;;;;;;;3.30;2.05;;;12.40;99.90;;;13.45;89.01;100148.31;5066648;28;20050;-76